Time;durP1;ratioP1;P1;durP2;ratioP2;P2;SDS_P1;SDS_P2;PMS_P1;PMS_P2;Temp;Humidity;BMP_temperature;BMP_pressure;BME280_temperature;BME280_humidity;BME280_pressure;Samples;Min_cycle;Max_cycle;Signal;HPM_P1;HPM_P2
2022/04/24 00:00:12;;;;;;;63.05;30.38;;;;;;;;;;4980783;28;20088;-70
2022/04/24 00:02:37;;;;;;;68.82;33.47;;;;;;;;;;4981107;28;20053;-69
2022/04/24 00:05:04;;;;;;;68.05;31.05;;;;;;;;;;4981712;28;20042;-69
2022/04/24 00:07:31;;;;;;;60.53;27.58;;;;;;;;;;4981138;28;20105;-71
2022/04/24 00:09:57;;;;;;;68.28;32.30;;;;;;;;;;4982222;28;20479;-70
2022/04/24 00:12:22;;;;;;;73.63;33.15;;;;;;;;;;4980862;28;20042;-70
2022/04/24 00:14:48;;;;;;;85.30;35.70;;;;;;;;;;4982103;28;20050;-70
2022/04/24 00:17:20;;;;;;;79.20;33.70;;;;;;;;;;4981512;28;20046;-69
2022/04/24 00:19:46;;;;;;;;;;;;;;;;;;4982547;28;20034;-70
2022/04/24 00:22:11;;;;;;;75.28;32.70;;;;;;;;;;4981853;28;20382;-69
2022/04/24 00:24:37;;;;;;;66.57;31.00;;;;;;;;;;4981022;28;20678;-69
2022/04/24 00:27:03;;;;;;;68.07;31.42;;;;;;;;;;4980729;28;20046;-69
2022/04/24 00:29:28;;;;;;;70.75;32.75;;;;;;;;;;4981534;28;20038;-69
2022/04/24 00:31:53;;;;;;;66.13;33.13;;;;;;;;;;4981463;28;20134;-69
2022/04/24 00:34:19;;;;;;;67.53;32.65;;;;;;;;;;4980777;28;20463;-69
2022/04/24 00:36:45;;;;;;;72.93;33.42;;;;;;;;;;4980534;28;20149;-70
2022/04/24 00:39:14;;;;;;;80.40;33.47;;;;;;;;;;4981986;28;20058;-69
2022/04/24 00:41:47;;;;;;;80.05;33.70;;;;;;;;;;4981650;28;20038;-70
2022/04/24 00:44:14;;;;;;;73.53;34.67;;;;;;;;;;4981535;28;20133;-70
2022/04/24 00:47:02;;;;;;;79.88;33.63;;;;;;;;;;4979608;28;20053;-71
2022/04/24 00:49:28;;;;;;;67.68;32.20;;;;;;;;;;4980903;28;20085;-70
2022/04/24 00:51:54;;;;;;;73.85;32.42;;;;;;;;;;4979431;28;20042;-71
2022/04/24 00:54:20;;;;;;;77.28;33.03;;;;;;;;;;4981020;28;20050;-70
2022/04/24 00:56:45;;;;;;;74.53;34.13;;;;;;;;;;4979249;28;20642;-70
2022/04/24 00:59:12;;;;;;;75.68;32.58;;;;;;;;;;4980726;28;20038;-70
2022/04/24 01:01:40;;;;;;;66.60;31.83;;;;;;;;;;4981180;28;20030;-70
2022/04/24 01:04:07;;;;;;;67.25;32.47;;;;;;;;;;4963809;28;20565;-71
2022/04/24 01:06:39;;;;;;;59.03;29.98;;;;;;;;;;4980710;28;20042;-69
2022/04/24 01:09:21;;;;;;;60.38;30.45;;;;;;;;;;4979761;28;20129;-70
2022/04/24 01:11:52;;;;;;;69.20;31.75;;;;;;;;;;4980753;28;20045;-70
2022/04/24 01:14:19;;;;;;;68.40;30.83;;;;;;;;;;4980805;28;20030;-70
2022/04/24 01:16:46;;;;;;;58.90;30.05;;;;;;;;;;4980286;28;20699;-70
2022/04/24 01:19:12;;;;;;;59.53;30.40;;;;;;;;;;4972839;28;20125;-69
2022/04/24 01:21:40;;;;;;;58.35;30.25;;;;;;;;;;4980894;28;20087;-71
2022/04/24 01:24:07;;;;;;;52.92;26.80;;;;;;;;;;4980536;28;20069;-71
2022/04/24 01:26:34;;;;;;;52.50;28.08;;;;;;;;;;4980515;28;20042;-69
2022/04/24 01:28:59;;;;;;;54.67;28.85;;;;;;;;;;4980577;28;20560;-71
2022/04/24 01:31:25;;;;;;;62.58;31.20;;;;;;;;;;4979299;28;20046;-71
2022/04/24 01:33:50;;;;;;;59.97;29.83;;;;;;;;;;4980596;28;20049;-70
2022/04/24 01:36:16;;;;;;;58.88;27.88;;;;;;;;;;4979052;28;20184;-71
2022/04/24 01:38:41;;;;;;;56.40;28.77;;;;;;;;;;4980154;28;20084;-71
2022/04/24 01:41:07;;;;;;;65.43;30.17;;;;;;;;;;4978487;28;20046;-72
2022/04/24 01:43:33;;;;;;;56.92;29.40;;;;;;;;;;4980683;28;20149;-71
2022/04/24 01:45:58;;;;;;;53.10;27.33;;;;;;;;;;4979463;28;20226;-73
2022/04/24 01:48:24;;;;;;;56.67;28.40;;;;;;;;;;4980710;28;20014;-68
2022/04/24 01:50:54;;;;;;;51.20;27.27;;;;;;;;;;4973164;28;20439;-69
2022/04/24 01:53:19;;;;;;;58.08;29.52;;;;;;;;;;4979589;28;20033;-69
2022/04/24 01:55:45;;;;;;;59.50;30.75;;;;;;;;;;4979806;28;20042;-70
2022/04/24 01:58:11;;;;;;;65.07;31.40;;;;;;;;;;4980343;28;20042;-70
2022/04/24 02:00:36;;;;;;;71.00;31.60;;;;;;;;;;4980383;28;20709;-70
2022/04/24 02:03:02;;;;;;;60.85;30.60;;;;;;;;;;4980760;28;20419;-71
2022/04/24 02:05:27;;;;;;;67.72;31.88;;;;;;;;;;4984408;28;20045;-71
2022/04/24 02:07:52;;;;;;;67.60;32.05;;;;;;;;;;4983747;28;20046;-71
2022/04/24 02:10:18;;;;;;;64.28;31.00;;;;;;;;;;4984640;28;20038;-70
2022/04/24 02:12:44;;;;;;;61.90;31.48;;;;;;;;;;4984363;28;20038;-71
2022/04/24 02:15:10;;;;;;;70.50;32.13;;;;;;;;;;4983226;28;20046;-71
2022/04/24 02:17:35;;;;;;;73.68;33.22;;;;;;;;;;4983703;28;20046;-71
2022/04/24 02:20:02;;;;;;;62.95;31.52;;;;;;;;;;4984217;28;20048;-72
2022/04/24 02:22:34;;;;;;;76.15;33.25;;;;;;;;;;4984515;28;20038;-72
2022/04/24 02:25:00;;;;;;;67.07;30.13;;;;;;;;;;4983667;28;20409;-70
2022/04/24 02:27:26;;;;;;;72.63;31.08;;;;;;;;;;4983462;28;20533;-70
2022/04/24 02:29:53;;;;;;;72.07;31.45;;;;;;;;;;4983364;28;20804;-71
2022/04/24 02:32:18;;;;;;;71.82;32.42;;;;;;;;;;4983728;28;20030;-70
2022/04/24 02:34:44;;;;;;;74.32;31.77;;;;;;;;;;4983480;28;20065;-71
2022/04/24 02:37:09;;;;;;;79.82;35.25;;;;;;;;;;4965007;28;20046;-70
2022/04/24 02:39:35;;;;;;;75.78;32.83;;;;;;;;;;4983547;28;20080;-69
2022/04/24 02:42:01;;;;;;;71.50;32.58;;;;;;;;;;4983796;28;21136;-71
2022/04/24 02:44:27;;;;;;;69.00;29.67;;;;;;;;;;4983779;28;20045;-71
2022/04/24 02:46:52;;;;;;;71.97;31.95;;;;;;;;;;4981524;28;20508;-70
2022/04/24 02:49:18;;;;;;;67.43;31.73;;;;;;;;;;4983428;28;20038;-70
2022/04/24 02:51:44;;;;;;;64.97;29.25;;;;;;;;;;4983562;28;20038;-71
2022/04/24 02:54:09;;;;;;;72.80;31.60;;;;;;;;;;4983599;28;20057;-69
2022/04/24 02:56:35;;;;;;;54.53;27.85;;;;;;;;;;4983094;28;20046;-68
2022/04/24 02:59:00;;;;;;;67.53;31.65;;;;;;;;;;4965439;28;20042;-69
2022/04/24 03:01:26;;;;;;;63.50;30.63;;;;;;;;;;4983312;28;20057;-69
2022/04/24 03:03:51;;;;;;;70.43;32.05;;;;;;;;;;4965691;28;20060;-69
2022/04/24 03:06:17;;;;;;;64.88;28.75;;;;;;;;;;4982741;28;20673;-69
2022/04/24 03:08:42;;;;;;;66.63;30.23;;;;;;;;;;4982514;28;20129;-68
2022/04/24 03:11:07;;;;;;;74.68;32.85;;;;;;;;;;4983075;28;20197;-68
2022/04/24 03:13:33;;;;;;;78.13;34.33;;;;;;;;;;4983406;28;20084;-68
2022/04/24 03:15:59;;;;;;;79.22;35.42;;;;;;;;;;4981539;28;20042;-69
2022/04/24 03:18:24;;;;;;;75.10;33.25;;;;;;;;;;4983331;28;20038;-68
2022/04/24 03:20:50;;;;;;;72.63;32.35;;;;;;;;;;4981771;28;20061;-68
2022/04/24 03:23:15;;;;;;;61.15;29.33;;;;;;;;;;4982649;28;20034;-69
2022/04/24 03:25:41;;;;;;;63.38;29.90;;;;;;;;;;4981677;28;20137;-68
2022/04/24 03:28:08;;;;;;;56.90;28.65;;;;;;;;;;4983273;28;20038;-68
2022/04/24 03:30:35;;;;;;;55.83;28.05;;;;;;;;;;4982216;28;20053;-69
2022/04/24 03:33:01;;;;;;;60.60;30.13;;;;;;;;;;4965357;28;20057;-70
2022/04/24 03:35:26;;;;;;;65.80;30.98;;;;;;;;;;4982737;28;20488;-71
2022/04/24 03:37:51;;;;;;;61.65;30.08;;;;;;;;;;4981295;28;20049;-70
2022/04/24 03:40:17;;;;;;;64.10;29.77;;;;;;;;;;4981459;28;20113;-70
2022/04/24 03:42:42;;;;;;;58.50;28.90;;;;;;;;;;4981474;28;20050;-70
2022/04/24 03:45:11;;;;;;;56.75;29.15;;;;;;;;;;4981860;28;20053;-70
2022/04/24 03:47:37;;;;;;;60.55;30.17;;;;;;;;;;4981710;28;20048;-69
2022/04/24 03:50:03;;;;;;;59.58;27.23;;;;;;;;;;4978399;28;20038;-69
2022/04/24 03:52:41;;;;;;;56.67;28.73;;;;;;;;;;4964289;28;20066;-69
2022/04/24 03:55:07;;;;;;;64.10;29.67;;;;;;;;;;4982702;28;20459;-69
2022/04/24 03:57:33;;;;;;;63.35;30.65;;;;;;;;;;4979984;28;20494;-69
2022/04/24 03:59:59;;;;;;;85.22;36.88;;;;;;;;;;4982005;28;20034;-69
2022/04/24 04:02:24;;;;;;;88.55;33.80;;;;;;;;;;4981419;28;20149;-69
2022/04/24 04:04:50;;;;;;;51.03;24.90;;;;;;;;;;4982097;28;20099;-69
2022/04/24 04:07:16;;;;;;;31.75;17.15;;;;;;;;;;4981644;28;20034;-70
2022/04/24 04:09:41;;;;;;;52.13;25.13;;;;;;;;;;4982249;28;21103;-69
2022/04/24 04:12:07;;;;;;;52.90;27.05;;;;;;;;;;4982308;28;20050;-71
2022/04/24 04:14:33;;;;;;;51.33;25.77;;;;;;;;;;4981085;28;20046;-71
2022/04/24 04:16:58;;;;;;;55.33;26.98;;;;;;;;;;4981051;28;20077;-72
2022/04/24 04:19:24;;;;;;;55.95;27.45;;;;;;;;;;4982135;28;20046;-71
2022/04/24 04:21:49;;;;;;;51.08;26.88;;;;;;;;;;4964769;28;20042;-71
2022/04/24 04:24:15;;;;;;;50.00;25.67;;;;;;;;;;4981060;28;20080;-71
2022/04/24 04:26:41;;;;;;;51.30;26.67;;;;;;;;;;4980465;28;20155;-70
2022/04/24 04:29:06;;;;;;;45.63;24.33;;;;;;;;;;4981599;28;20041;-70
2022/04/24 04:31:31;;;;;;;46.83;25.67;;;;;;;;;;4981773;28;20042;-69
2022/04/24 04:33:57;;;;;;;45.42;25.20;;;;;;;;;;4981542;28;20030;-69
2022/04/24 04:36:22;;;;;;;48.50;26.30;;;;;;;;;;4980073;28;20518;-69
2022/04/24 04:38:48;;;;;;;50.05;26.40;;;;;;;;;;4981127;28;20088;-68
2022/04/24 04:41:13;;;;;;;43.95;24.98;;;;;;;;;;4982007;28;20056;-69
2022/04/24 04:43:38;;;;;;;46.67;25.27;;;;;;;;;;4981239;28;20076;-69
2022/04/24 04:46:04;;;;;;;38.90;21.77;;;;;;;;;;4981132;28;20050;-69
2022/04/24 04:48:30;;;;;;;46.05;23.52;;;;;;;;;;4980210;28;20038;-73
2022/04/24 04:50:55;;;;;;;48.13;25.85;;;;;;;;;;4981484;28;20042;-71
2022/04/24 04:53:21;;;;;;;49.03;24.42;;;;;;;;;;4983100;28;20483;-71
2022/04/24 04:55:47;;;;;;;50.33;24.77;;;;;;;;;;4982489;28;20061;-70
2022/04/24 04:58:12;;;;;;;56.78;27.52;;;;;;;;;;4980215;28;20658;-70
2022/04/24 05:00:38;;;;;;;50.75;26.80;;;;;;;;;;4981995;28;20041;-70
2022/04/24 05:03:03;;;;;;;42.95;22.25;;;;;;;;;;4982326;28;20129;-70
2022/04/24 05:05:29;;;;;;;37.30;20.25;;;;;;;;;;4981306;28;20042;-69
2022/04/24 05:07:54;;;;;;;48.72;24.05;;;;;;;;;;4981552;28;20045;-71
2022/04/24 05:10:20;;;;;;;43.22;24.02;;;;;;;;;;4980442;28;20149;-70
2022/04/24 05:12:45;;;;;;;35.05;20.23;;;;;;;;;;4982061;28;20096;-71
2022/04/24 05:15:14;;;;;;;29.92;15.27;;;;;;;;;;4982262;28;20073;-70
2022/04/24 05:17:42;;;;;;;22.50;11.85;;;;;;;;;;4981191;28;20046;-68
2022/04/24 05:20:10;;;;;;;19.50;12.30;;;;;;;;;;4981086;28;20120;-69
2022/04/24 05:22:37;;;;;;;20.73;11.95;;;;;;;;;;4963549;28;20078;-69
2022/04/24 05:25:09;;;;;;;25.88;14.57;;;;;;;;;;4983665;28;20034;-67
2022/04/24 05:27:36;;;;;;;21.02;15.68;;;;;;;;;;4981612;28;20704;-68
2022/04/24 05:30:05;;;;;;;17.52;9.98;;;;;;;;;;4981660;28;20034;-69
2022/04/24 05:32:38;;;;;;;26.52;13.73;;;;;;;;;;4980778;28;20072;-68
2022/04/24 05:35:04;;;;;;;15.57;11.95;;;;;;;;;;4980189;28;20030;-68
2022/04/24 05:37:29;;;;;;;19.77;12.40;;;;;;;;;;4980547;28;20585;-68
2022/04/24 05:39:55;;;;;;;22.00;13.32;;;;;;;;;;4981874;28;20041;-69
2022/04/24 05:42:20;;;;;;;23.90;13.55;;;;;;;;;;4980351;28;20471;-69
2022/04/24 05:44:45;;;;;;;15.13;9.98;;;;;;;;;;4980990;28;20050;-68
2022/04/24 05:47:11;;;;;;;18.75;10.40;;;;;;;;;;4980933;28;20074;-70
2022/04/24 05:49:36;;;;;;;17.88;10.65;;;;;;;;;;4981349;28;20574;-71
2022/04/24 05:52:02;;;;;;;23.75;13.38;;;;;;;;;;4981188;28;20054;-70
2022/04/24 05:54:30;;;;;;;13.77;9.07;;;;;;;;;;4979874;28;20121;-70
2022/04/24 05:56:55;;;;;;;12.35;8.68;;;;;;;;;;4981279;28;20034;-70
2022/04/24 05:59:20;;;;;;;13.98;10.10;;;;;;;;;;4981517;28;20054;-70
2022/04/24 06:01:46;;;;;;;13.20;9.23;;;;;;;;;;4964124;28;20038;-70
2022/04/24 06:04:11;;;;;;;16.27;10.02;;;;;;;;;;4981230;28;20038;-71
2022/04/24 06:06:37;;;;;;;13.80;8.63;;;;;;;;;;4981318;28;20406;-70
2022/04/24 06:09:02;;;;;;;12.85;7.78;;;;;;;;;;4964888;28;20070;-70
2022/04/24 06:11:28;;;;;;;18.15;11.48;;;;;;;;;;4981861;28;20038;-69
2022/04/24 06:13:53;;;;;;;14.02;9.88;;;;;;;;;;4981099;28;20046;-69
2022/04/24 06:16:18;;;;;;;14.38;10.25;;;;;;;;;;4980136;28;20137;-69
2022/04/24 06:18:44;;;;;;;17.45;11.32;;;;;;;;;;4981324;28;20044;-70
2022/04/24 06:21:09;;;;;;;17.45;12.35;;;;;;;;;;4980286;28;20048;-70
2022/04/24 06:23:35;;;;;;;17.73;11.35;;;;;;;;;;4980366;28;20054;-70
2022/04/24 06:26:01;;;;;;;19.20;12.32;;;;;;;;;;4978092;28;20534;-68
2022/04/24 06:28:26;;;;;;;17.77;11.88;;;;;;;;;;4980490;28;20034;-69
2022/04/24 06:30:52;;;;;;;16.05;9.80;;;;;;;;;;4980861;28;20506;-70
2022/04/24 06:33:18;;;;;;;11.80;9.65;;;;;;;;;;4980402;28;20093;-69
2022/04/24 06:35:45;;;;;;;12.75;8.98;;;;;;;;;;4980518;28;20046;-69
2022/04/24 06:38:10;;;;;;;12.25;8.27;;;;;;;;;;4978903;28;20042;-70
2022/04/24 06:40:36;;;;;;;17.40;10.88;;;;;;;;;;4981744;28;20041;-69
2022/04/24 06:43:04;;;;;;;14.55;8.57;;;;;;;;;;4980174;28;20148;-69
2022/04/24 06:45:38;;;;;;;10.60;7.22;;;;;;;;;;4981053;28;20125;-70
2022/04/24 06:48:12;;;;;;;9.93;7.43;;;;;;;;;;4979384;28;20038;-70
2022/04/24 06:50:42;;;;;;;15.07;8.38;;;;;;;;;;4982819;28;20513;-69
2022/04/24 06:53:10;;;;;;;14.35;8.73;;;;;;;;;;4984181;28;20078;-70
2022/04/24 06:55:40;;;;;;;14.38;7.65;;;;;;;;;;4984877;28;20078;-71
2022/04/24 06:58:07;;;;;;;14.57;9.57;;;;;;;;;;4984015;28;20054;-70
2022/04/24 07:00:36;;;;;;;11.20;7.85;;;;;;;;;;4983655;28;20030;-70
2022/04/24 07:03:12;;;;;;;7.20;6.43;;;;;;;;;;4983966;28;20076;-69
2022/04/24 07:05:39;;;;;;;11.13;6.82;;;;;;;;;;4981658;28;20049;-70
2022/04/24 07:08:05;;;;;;;9.75;6.28;;;;;;;;;;4983769;28;20088;-68
2022/04/24 07:10:31;;;;;;;9.32;6.88;;;;;;;;;;4983244;28;20030;-69
2022/04/24 07:12:57;;;;;;;6.45;4.97;;;;;;;;;;4984515;28;20546;-69
2022/04/24 07:15:23;;;;;;;9.00;6.60;;;;;;;;;;4981641;28;20046;-71
2022/04/24 07:17:51;;;;;;;8.52;5.97;;;;;;;;;;4980779;28;20034;-71
2022/04/24 07:20:18;;;;;;;7.95;5.70;;;;;;;;;;4981807;28;20030;-70
2022/04/24 07:22:44;;;;;;;8.50;6.05;;;;;;;;;;4982807;28;20034;-70
2022/04/24 07:25:10;;;;;;;8.40;5.53;;;;;;;;;;4984253;28;20034;-70
2022/04/24 07:27:36;;;;;;;8.18;5.45;;;;;;;;;;4983537;28;20498;-70
2022/04/24 07:30:01;;;;;;;7.93;6.15;;;;;;;;;;4983728;28;20031;-70
2022/04/24 07:32:27;;;;;;;5.80;5.07;;;;;;;;;;4982406;28;20081;-71
2022/04/24 07:34:52;;;;;;;4.70;3.85;;;;;;;;;;4982780;28;20041;-70
2022/04/24 07:37:18;;;;;;;6.97;4.32;;;;;;;;;;4983062;28;20133;-69
2022/04/24 07:39:43;;;;;;;4.00;3.33;;;;;;;;;;4981397;28;20435;-70
2022/04/24 07:42:08;;;;;;;4.32;3.05;;;;;;;;;;4981082;28;20034;-69
2022/04/24 07:44:34;;;;;;;4.07;3.20;;;;;;;;;;4981757;28;20114;-69
2022/04/24 07:46:59;;;;;;;3.03;1.85;;;;;;;;;;4980913;28;20397;-69
2022/04/24 07:49:24;;;;;;;2.70;2.20;;;;;;;;;;4982352;28;20060;-70
2022/04/24 07:51:50;;;;;;;2.47;1.85;;;;;;;;;;4981695;28;20061;-72
2022/04/24 07:54:15;;;;;;;3.80;2.05;;;;;;;;;;4979721;28;20066;-71
2022/04/24 07:56:42;;;;;;;2.35;2.15;;;;;;;;;;4979575;28;20038;-71
2022/04/24 08:03:02;;;;;;;1.13;1.02;;;;;;;;;;4982866;28;20048;-71
2022/04/24 08:05:31;;;;;;;0.68;0.68;;;;;;;;;;4981569;28;20038;-70
2022/04/24 08:07:58;;;;;;;0.60;0.60;;;;;;;;;;4980306;28;20201;-70
2022/04/24 08:10:28;;;;;;;0.80;0.80;;;;;;;;;;4981353;28;20117;-70
2022/04/24 08:12:54;;;;;;;0.70;0.70;;;;;;;;;;4980599;28;20074;-70
2022/04/24 08:15:20;;;;;;;1.08;1.00;;;;;;;;;;4980811;28;20089;-70
2022/04/24 08:17:45;;;;;;;1.05;0.82;;;;;;;;;;4980833;28;20499;-70
2022/04/24 08:20:13;;;;;;;0.50;0.50;;;;;;;;;;4981303;28;20558;-70
2022/04/24 08:22:47;;;;;;;0.75;0.75;;;;;;;;;;4980744;28;20077;-70
2022/04/24 08:25:15;;;;;;;1.20;1.10;;;;;;;;;;4981610;28;20042;-70
2022/04/24 08:27:41;;;;;;;3.33;1.10;;;;;;;;;;4979749;28;20608;-69
2022/04/24 08:30:08;;;;;;;2.40;1.10;;;;;;;;;;4981126;28;20038;-70
2022/04/24 08:32:36;;;;;;;0.88;0.85;;;;;;;;;;4981630;28;20073;-70
2022/04/24 08:35:03;;;;;;;0.55;0.55;;;;;;;;;;4980523;28;20038;-70
2022/04/24 08:37:29;;;;;;;1.00;0.60;;;;;;;;;;4978407;28;20451;-70
2022/04/24 08:39:54;;;;;;;1.30;0.70;;;;;;;;;;4980509;28;20034;-70
2022/04/24 08:42:23;;;;;;;0.60;0.60;;;;;;;;;;4981274;28;20110;-70
2022/04/24 08:44:49;;;;;;;0.50;0.50;;;;;;;;;;4980794;28;20038;-70
2022/04/24 08:47:16;;;;;;;0.70;0.70;;;;;;;;;;4980508;28;20546;-70
2022/04/24 08:49:42;;;;;;;0.63;0.60;;;;;;;;;;4980355;28;20045;-70
2022/04/24 08:52:09;;;;;;;0.75;0.75;;;;;;;;;;4980991;28;20136;-70
2022/04/24 08:54:35;;;;;;;3.33;0.93;;;;;;;;;;4980425;28;20129;-70
2022/04/24 08:57:01;;;;;;;0.55;0.55;;;;;;;;;;4979614;28;20034;-70
2022/04/24 08:59:26;;;;;;;1.50;0.90;;;;;;;;;;4981256;28;20089;-70
2022/04/24 09:01:52;;;;;;;0.80;0.80;;;;;;;;;;4978354;28;21133;-70
2022/04/24 09:04:18;;;;;;;1.20;0.90;;;;;;;;;;4977989;28;20026;-71
2022/04/24 09:06:55;;;;;;;1.00;0.90;;;;;;;;;;4977331;28;20042;-70
2022/04/24 09:09:21;;;;;;;1.15;0.65;;;;;;;;;;4977995;28;20168;-71
2022/04/24 09:11:46;;;;;;;3.13;0.77;;;;;;;;;;4978132;28;20167;-70
2022/04/24 09:14:14;;;;;;;0.85;0.85;;;;;;;;;;4979441;28;20519;-70
2022/04/24 09:16:48;;;;;;;0.60;0.60;;;;;;;;;;4979774;28;20046;-70
2022/04/24 09:19:23;;;;;;;0.63;0.63;;;;;;;;;;4981941;28;20073;-70
2022/04/24 09:21:50;;;;;;;1.38;1.10;;;;;;;;;;4980303;28;20153;-70
2022/04/24 09:24:16;;;;;;;1.40;1.00;;;;;;;;;;4980921;28;20084;-70
2022/04/24 09:26:50;;;;;;;0.90;0.88;;;;;;;;;;4980676;28;20124;-70
2022/04/24 09:29:16;;;;;;;1.10;0.88;;;;;;;;;;4981307;28;20122;-70
2022/04/24 09:31:47;;;;;;;1.17;0.68;;;;;;;;;;4981087;28;20145;-70
2022/04/24 09:34:14;;;;;;;1.58;0.70;;;;;;;;;;4980678;28;20499;-70
2022/04/24 09:36:39;;;;;;;1.15;0.55;;;;;;;;;;4980812;28;20033;-70
2022/04/24 09:39:05;;;;;;;0.65;0.65;;;;;;;;;;4981239;28;20434;-70
2022/04/24 09:41:30;;;;;;;0.50;0.50;;;;;;;;;;4981106;28;20089;-70
2022/04/24 09:43:56;;;;;;;0.90;0.73;;;;;;;;;;4979635;28;20113;-70
2022/04/24 09:46:29;;;;;;;2.20;0.70;;;;;;;;;;4980156;28;20511;-70
2022/04/24 09:49:00;;;;;;;0.65;0.60;;;;;;;;;;4980774;28;20070;-70
2022/04/24 09:51:26;;;;;;;0.67;0.40;;;;;;;;;;4980099;28;20038;-70
2022/04/24 09:53:53;;;;;;;2.33;0.60;;;;;;;;;;4980404;28;20053;-70
2022/04/24 09:56:19;;;;;;;0.40;0.40;;;;;;;;;;4979283;28;20147;-69
2022/04/24 09:58:46;;;;;;;0.50;0.50;;;;;;;;;;4980550;28;20034;-69
2022/04/24 10:01:12;;;;;;;1.42;0.63;;;;;;;;;;4981752;28;20034;-70
2022/04/24 10:03:38;;;;;;;0.40;0.40;;;;;;;;;;4980930;28;20055;-71
2022/04/24 10:06:05;;;;;;;0.50;0.50;;;;;;;;;;4979987;28;20478;-70
2022/04/24 10:08:35;;;;;;;0.55;0.55;;;;;;;;;;4979901;28;20124;-71
2022/04/24 10:11:05;;;;;;;0.60;0.40;;;;;;;;;;4980866;28;20046;-71
2022/04/24 10:13:36;;;;;;;0.30;0.30;;;;;;;;;;4980923;28;20113;-70
2022/04/24 10:16:28;;;;;;;0.60;0.50;;;;;;;;;;4980513;28;20092;-70
2022/04/24 10:19:12;;;;;;;0.65;0.47;;;;;;;;;;4980788;28;20038;-69
2022/04/24 10:21:37;;;;;;;0.40;0.40;;;;;;;;;;4980998;28;20042;-69
2022/04/24 10:24:10;;;;;;;0.40;0.40;;;;;;;;;;4981677;28;20036;-70
2022/04/24 10:26:37;;;;;;;0.65;0.20;;;;;;;;;;4984286;28;20121;-71
2022/04/24 10:29:08;;;;;;;0.35;0.30;;;;;;;;;;4983639;28;20042;-71
2022/04/24 10:31:44;;;;;;;0.20;0.20;;;;;;;;;;4984322;28;20042;-71
2022/04/24 10:34:11;;;;;;;1.10;0.40;;;;;;;;;;4983992;28;20034;-70
2022/04/24 10:36:37;;;;;;;0.20;0.20;;;;;;;;;;4983708;28;20045;-71
2022/04/24 10:39:15;;;;;;;0.30;0.30;;;;;;;;;;4983739;28;20145;-72
2022/04/24 10:41:40;;;;;;;0.40;0.40;;;;;;;;;;4984250;28;20030;-71
2022/04/24 10:44:15;;;;;;;0.30;0.30;;;;;;;;;;4983819;28;20049;-70
2022/04/24 10:46:44;;;;;;;0.38;0.38;;;;;;;;;;4983197;28;20034;-71
2022/04/24 10:49:12;;;;;;;0.40;0.40;;;;;;;;;;4983489;28;20081;-68
2022/04/24 10:51:40;;;;;;;2.67;0.30;;;;;;;;;;4982967;28;20521;-67
2022/04/24 10:54:08;;;;;;;0.40;0.40;;;;;;;;;;4983931;28;20156;-69
2022/04/24 10:56:35;;;;;;;1.08;0.30;;;;;;;;;;4983301;28;20100;-69
2022/04/24 10:59:18;;;;;;;0.68;0.32;;;;;;;;;;4966445;28;20042;-70
2022/04/24 11:01:48;;;;;;;0.30;0.30;;;;;;;;;;4983241;28;20680;-70
2022/04/24 11:04:14;;;;;;;0.85;0.52;;;;;;;;;;4983625;28;20041;-70
2022/04/24 11:06:51;;;;;;;0.25;0.25;;;;;;;;;;4982371;28;20081;-69
2022/04/24 11:09:18;;;;;;;0.30;0.30;;;;;;;;;;4983214;28;20026;-69
2022/04/24 11:11:57;;;;;;;0.30;0.30;;;;;;;;;;4982543;28;20636;-69
2022/04/24 11:14:25;;;;;;;0.30;0.30;;;;;;;;;;4982324;28;20026;-69
2022/04/24 11:16:58;;;;;;;0.13;0.10;;;;;;;;;;4983056;28;20050;-70
2022/04/24 11:19:26;;;;;;;1.85;0.43;;;;;;;;;;4982764;28;20026;-69
2022/04/24 11:21:56;;;;;;;0.20;0.20;;;;;;;;;;4983521;28;20085;-69
2022/04/24 11:24:23;;;;;;;0.20;0.20;;;;;;;;;;4981937;28;20038;-69
2022/04/24 11:26:49;;;;;;;0.30;0.30;;;;;;;;;;4982227;28;20041;-70
2022/04/24 11:29:14;;;;;;;0.63;0.40;;;;;;;;;;4982898;28;20038;-70
2022/04/24 11:31:48;;;;;;;0.30;0.30;;;;;;;;;;4983196;28;20556;-71
2022/04/24 11:34:16;;;;;;;0.60;0.40;;;;;;;;;;4984222;28;20034;-71
2022/04/24 11:36:42;;;;;;;0.43;0.28;;;;;;;;;;4981880;28;20162;-71
2022/04/24 11:39:07;;;;;;;0.40;0.40;;;;;;;;;;4982589;28;20110;-70
2022/04/24 11:41:33;;;;;;;1.55;0.50;;;;;;;;;;4983201;28;20113;-70
2022/04/24 11:50:13;;;;;;;0.32;0.32;;;;;;;;;;4982849;28;20549;-70
2022/04/24 11:52:23;;;;;;;2.10;0.20;;;;;;;;;;4982576;28;20042;-71
2022/04/24 11:54:49;;;;;;;0.20;0.20;;;;;;;;;;4982828;28;20053;-71
2022/04/24 11:57:14;;;;;;;1.50;0.20;;;;;;;;;;4982176;28;20076;-70
2022/04/24 11:59:40;;;;;;;2.92;0.30;;;;;;;;;;4983238;28;20521;-71
2022/04/24 12:02:14;;;;;;;0.30;0.30;;;;;;;;;;4982575;28;20049;-72
2022/04/24 12:04:40;;;;;;;0.50;0.22;;;;;;;;;;4982267;28;20030;-71
2022/04/24 12:07:09;;;;;;;0.38;0.38;;;;;;;;;;4980998;28;20740;-71
2022/04/24 12:09:37;;;;;;;0.32;0.32;;;;;;;;;;4982315;28;20970;-70
2022/04/24 12:12:06;;;;;;;2.05;0.40;;;;;;;;;;4984013;28;20138;-70
2022/04/24 12:14:32;;;;;;;1.67;0.40;;;;;;;;;;4984182;28;20030;-70
2022/04/24 12:17:02;;;;;;;0.38;0.32;;;;;;;;;;4982529;28;20455;-69
2022/04/24 12:19:28;;;;;;;0.65;0.40;;;;;;;;;;4981369;28;20491;-71
2022/04/24 12:21:54;;;;;;;0.30;0.30;;;;;;;;;;4982195;28;20069;-71
2022/04/24 12:24:21;;;;;;;0.40;0.40;;;;;;;;;;4982370;28;20077;-70
2022/04/24 12:26:52;;;;;;;0.52;0.45;;;;;;;;;;4981268;28;20042;-72
2022/04/24 12:29:18;;;;;;;0.95;0.50;;;;;;;;;;4981371;28;20034;-71
2022/04/24 12:31:48;;;;;;;0.32;0.32;;;;;;;;;;4981794;28;20129;-70
2022/04/24 12:34:14;;;;;;;0.20;0.20;;;;;;;;;;4982160;28;20046;-71
2022/04/24 12:36:50;;;;;;;0.30;0.30;;;;;;;;;;4981158;28;20041;-70
2022/04/24 12:39:24;;;;;;;0.20;0.20;;;;;;;;;;4981502;28;20882;-71
2022/04/24 12:41:49;;;;;;;0.30;0.30;;;;;;;;;;4981704;28;20650;-71
2022/04/24 12:44:15;;;;;;;0.32;0.32;;;;;;;;;;4981879;28;20113;-70
2022/04/24 12:46:40;;;;;;;2.00;0.30;;;;;;;;;;4980612;28;20502;-71
2022/04/24 12:49:07;;;;;;;0.43;0.20;;;;;;;;;;4981402;28;20049;-70
2022/04/24 12:51:34;;;;;;;0.30;0.30;;;;;;;;;;4980781;28;20125;-70
2022/04/24 12:54:01;;;;;;;0.50;0.50;;;;;;;;;;4981358;28;20038;-70
2022/04/24 12:56:28;;;;;;;0.65;0.30;;;;;;;;;;4981853;28;20389;-71
2022/04/24 12:58:54;;;;;;;0.77;0.30;;;;;;;;;;4981085;28;20046;-72
2022/04/24 13:01:23;;;;;;;0.30;0.30;;;;;;;;;;4981134;28;20034;-71
2022/04/24 13:03:48;;;;;;;2.40;0.30;;;;;;;;;;4981471;28;20042;-71
2022/04/24 13:06:15;;;;;;;0.40;0.30;;;;;;;;;;4982372;28;20057;-71
2022/04/24 13:08:40;;;;;;;1.05;0.47;;;;;;;;;;4981003;28;20439;-72
2022/04/24 13:11:06;;;;;;;2.08;0.30;;;;;;;;;;4981845;28;20052;-69
2022/04/24 13:13:33;;;;;;;3.30;0.40;;;;;;;;;;4980425;28;20455;-70
2022/04/24 13:18:44;;;;;;;1.23;0.30;;;;;;;;;;4980927;28;20038;-71
2022/04/24 13:21:10;;;;;;;0.28;0.28;;;;;;;;;;4981627;28;20042;-70
2022/04/24 13:23:36;;;;;;;0.30;0.30;;;;;;;;;;4980857;28;20439;-71
2022/04/24 13:26:05;;;;;;;0.28;0.15;;;;;;;;;;4980685;28;20038;-71
2022/04/24 13:28:31;;;;;;;0.40;0.40;;;;;;;;;;4980614;28;20137;-69
2022/04/24 13:30:56;;;;;;;0.63;0.32;;;;;;;;;;4981009;28;20049;-69
2022/04/24 13:33:22;;;;;;;0.38;0.30;;;;;;;;;;4979123;28;20034;-71
2022/04/24 13:35:48;;;;;;;0.20;0.20;;;;;;;;;;4979986;28;20553;-72
2022/04/24 13:38:20;;;;;;;0.47;0.25;;;;;;;;;;4980702;28;20126;-71
2022/04/24 13:40:45;;;;;;;0.22;0.20;;;;;;;;;;4981810;28;20940;-71
2022/04/24 13:43:11;;;;;;;0.40;0.30;;;;;;;;;;4980978;28;20042;-71
2022/04/24 13:45:37;;;;;;;0.40;0.40;;;;;;;;;;4980126;28;20065;-71
2022/04/24 13:48:03;;;;;;;0.20;0.20;;;;;;;;;;4979711;28;20047;-70
2022/04/24 13:50:30;;;;;;;0.40;0.30;;;;;;;;;;4981219;28;20483;-70
2022/04/24 13:52:57;;;;;;;0.35;0.35;;;;;;;;;;4980883;28;20034;-70
2022/04/24 13:55:23;;;;;;;2.95;0.30;;;;;;;;;;4981084;28;20103;-69
2022/04/24 13:57:48;;;;;;;0.88;0.40;;;;;;;;;;4979700;28;20483;-69
2022/04/24 14:00:14;;;;;;;1.17;0.63;;;;;;;;;;4984123;28;20038;-71
2022/04/24 14:02:40;;;;;;;0.40;0.40;;;;;;;;;;4985285;28;20137;-71
2022/04/24 14:05:07;;;;;;;0.63;0.50;;;;;;;;;;4984889;28;20149;-70
2022/04/24 14:07:33;;;;;;;0.63;0.30;;;;;;;;;;4983892;28;20204;-71
2022/04/24 14:09:59;;;;;;;0.20;0.20;;;;;;;;;;4984796;28;20035;-72
2022/04/24 14:12:25;;;;;;;1.55;0.40;;;;;;;;;;4985179;28;20040;-69
2022/04/24 14:14:50;;;;;;;0.30;0.30;;;;;;;;;;4984817;28;20053;-71
2022/04/24 14:17:16;;;;;;;0.40;0.40;;;;;;;;;;4984140;28;20033;-72
2022/04/24 14:19:42;;;;;;;0.40;0.40;;;;;;;;;;4983952;28;20395;-71
2022/04/24 14:22:07;;;;;;;0.93;0.25;;;;;;;;;;4967164;28;20072;-71
2022/04/24 14:24:33;;;;;;;0.30;0.30;;;;;;;;;;4984598;28;20088;-72
2022/04/24 14:26:59;;;;;;;3.15;0.43;;;;;;;;;;4983832;28;20050;-69
2022/04/24 14:29:24;;;;;;;0.30;0.30;;;;;;;;;;4984101;28;20120;-72
2022/04/24 14:31:50;;;;;;;0.85;0.40;;;;;;;;;;4984131;28;20117;-72
2022/04/24 14:34:19;;;;;;;0.40;0.40;;;;;;;;;;4984509;28;20030;-71
2022/04/24 14:36:45;;;;;;;0.40;0.40;;;;;;;;;;4984394;28;20049;-70
2022/04/24 14:39:10;;;;;;;2.55;0.40;;;;;;;;;;4984340;28;20038;-71
2022/04/24 14:41:39;;;;;;;0.40;0.40;;;;;;;;;;4983261;28;20065;-68